createdAt,value
2023-07-02T00:02:17.988Z,15.923157
2023-07-02T00:05:43.064Z,15.923157
2023-07-02T00:09:08.237Z,15.923157
2023-07-02T00:12:33.402Z,15.892944
2023-07-02T00:15:58.570Z,15.862732
2023-07-02T00:19:23.770Z,15.84259
2023-07-02T00:22:48.922Z,15.802307
2023-07-02T00:26:14.087Z,15.802307
2023-07-02T00:29:39.239Z,15.782166
2023-07-02T00:33:04.433Z,15.762024
2023-07-02T00:36:29.593Z,15.762024
2023-07-02T00:39:54.733Z,15.782166
2023-07-02T00:43:19.889Z,15.782166
2023-07-02T00:46:45.076Z,15.782166
2023-07-02T00:50:10.233Z,15.782166
2023-07-02T00:53:35.466Z,15.762024
2023-07-02T00:57:00.620Z,15.751953
2023-07-02T01:00:25.791Z,15.782166
2023-07-02T01:03:50.961Z,15.802307
2023-07-02T01:07:16.133Z,15.862732
2023-07-02T01:10:41.320Z,15.822449
2023-07-02T01:14:06.501Z,15.83252
2023-07-02T01:17:31.704Z,15.782166
2023-07-02T01:20:56.851Z,15.83252
2023-07-02T01:24:22.018Z,15.83252
2023-07-02T01:27:47.233Z,15.802307
2023-07-02T01:31:12.387Z,15.802307
2023-07-02T01:34:37.560Z,15.762024
2023-07-02T01:38:02.748Z,15.530396
2023-07-02T01:41:27.915Z,15.439758
2023-07-02T01:44:53.128Z,15.33905
2023-07-02T01:48:18.270Z,15.248413
2023-07-02T01:51:43.450Z,15.20813
2023-07-02T01:55:08.611Z,15.137634
2023-07-02T01:58:33.834Z,15.097351
2023-07-02T02:01:59.045Z,15.067139
2023-07-02T02:05:24.221Z,15.057068
2023-07-02T02:08:49.385Z,15.067139
2023-07-02T02:12:14.523Z,15.08728
2023-07-02T02:15:39.760Z,15.107422
2023-07-02T02:19:04.918Z,15.127563
2023-07-02T02:22:30.077Z,15.20813
2023-07-02T02:25:55.242Z,15.248413
2023-07-02T02:29:20.432Z,15.248413
2023-07-02T02:32:45.647Z,15.198059
2023-07-02T02:36:10.855Z,15.20813
2023-07-02T02:39:36.063Z,15.198059
2023-07-02T02:43:01.229Z,15.167847
2023-07-02T02:46:26.445Z,15.127563
2023-07-02T02:49:51.564Z,15.157776
2023-07-02T02:53:16.789Z,15.198059
2023-07-02T02:56:41.918Z,15.248413
2023-07-02T03:00:07.094Z,15.248413
2023-07-02T03:03:32.320Z,15.278625
2023-07-02T03:06:57.411Z,15.268555
2023-07-02T03:10:22.601Z,15.278625
2023-07-02T03:13:47.739Z,15.278625
2023-07-02T03:17:12.906Z,15.228271
2023-07-02T03:20:38.074Z,15.20813
2023-07-02T03:24:03.237Z,15.20813
2023-07-02T03:27:28.456Z,15.187988
2023-07-02T03:30:53.597Z,15.137634
2023-07-02T03:34:18.764Z,15.127563
2023-07-02T03:37:43.930Z,15.157776
2023-07-02T03:41:09.094Z,15.167847
2023-07-02T03:44:34.269Z,15.167847
2023-07-02T03:47:59.424Z,15.167847
2023-07-02T03:51:24.549Z,15.127563
2023-07-02T03:54:49.726Z,15.127563
2023-07-02T03:58:14.906Z,15.137634
2023-07-02T04:01:40.117Z,15.187988
2023-07-02T04:05:05.282Z,15.187988
2023-07-02T04:08:30.415Z,15.157776
2023-07-02T04:11:55.600Z,15.137634
2023-07-02T04:15:20.759Z,15.198059
2023-07-02T04:18:45.981Z,15.157776
2023-07-02T04:22:11.108Z,15.107422
2023-07-02T04:25:44.554Z,15.198059
2023-07-02T04:29:01.464Z,15.278625
2023-07-02T04:32:26.665Z,15.379333
2023-07-02T04:35:51.797Z,15.389404
2023-07-02T04:39:16.941Z,15.379333
2023-07-02T04:42:42.094Z,15.33905
2023-07-02T04:46:07.294Z,15.359192
2023-07-02T04:49:32.428Z,15.359192
2023-07-02T04:52:57.613Z,15.389404
2023-07-02T04:56:22.765Z,15.429688
2023-07-02T04:59:47.960Z,15.560608
2023-07-02T05:03:13.228Z,15.721741
2023-07-02T05:06:38.297Z,16.013794
2023-07-02T05:10:03.560Z,16.205139
2023-07-02T05:13:28.689Z,16.265564
2023-07-02T05:16:53.883Z,16.376343
2023-07-02T05:20:19.056Z,16.386414
2023-07-02T05:23:44.202Z,16.275635
2023-07-02T05:27:09.399Z,16.295776
2023-07-02T05:30:34.535Z,16.275635
2023-07-02T05:33:59.704Z,16.295776
2023-07-02T05:37:24.874Z,16.275635
2023-07-02T05:40:50.304Z,16.205139
2023-07-02T05:44:15.257Z,16.074219
2023-07-02T05:47:40.426Z,16.003723
2023-07-02T05:51:05.593Z,15.973511
2023-07-02T05:54:30.823Z,16.003723
2023-07-02T05:57:55.955Z,15.973511
2023-07-02T06:01:21.157Z,16.023865
2023-07-02T06:04:46.408Z,16.013794
2023-07-02T06:08:11.758Z,16.074219
2023-07-02T06:11:37.040Z,16.074219
2023-07-02T06:15:02.708Z,16.144714
2023-07-02T06:18:28.079Z,16.235352
2023-07-02T06:21:53.313Z,16.34613
2023-07-02T06:25:18.620Z,16.446838
2023-07-02T06:28:43.999Z,16.487122
2023-07-02T06:32:09.257Z,16.497192
2023-07-02T06:35:36.248Z,16.517334
2023-07-02T06:39:01.589Z,16.527405
2023-07-02T06:42:26.882Z,16.557617
2023-07-02T06:45:52.135Z,16.497192
2023-07-02T06:49:17.375Z,16.577759
2023-07-02T06:52:42.577Z,16.5979
2023-07-02T06:56:07.768Z,16.5979
2023-07-02T06:59:32.925Z,16.567688
2023-07-02T07:02:58.161Z,16.607971
2023-07-02T07:06:23.377Z,16.5979
2023-07-02T07:09:49.138Z,16.668396
2023-07-02T07:13:14.310Z,16.759033
2023-07-02T07:16:39.497Z,16.759033
2023-07-02T07:20:04.660Z,16.759033
2023-07-02T07:23:30.052Z,16.859741
2023-07-02T07:26:55.257Z,16.97052
2023-07-02T07:30:20.477Z,17.041016
2023-07-02T07:33:45.698Z,17.000732
2023-07-02T07:37:10.898Z,16.980591
2023-07-02T07:40:36.168Z,16.910095
2023-07-02T07:44:01.402Z,16.859741
2023-07-02T07:47:26.508Z,16.889954
2023-07-02T07:50:51.756Z,16.940308
2023-07-02T07:54:16.891Z,16.940308
2023-07-02T07:57:42.147Z,16.879883
2023-07-02T08:01:07.393Z,17.111511
2023-07-02T08:04:32.640Z,17.413635
2023-07-02T08:07:57.761Z,17.745972
2023-07-02T08:11:22.941Z,17.927246
2023-07-02T08:14:48.205Z,18.048096
2023-07-02T08:18:13.418Z,18.179016
2023-07-02T08:21:38.647Z,18.289795
2023-07-02T08:25:03.895Z,18.450928
2023-07-02T08:28:29.084Z,18.60199
2023-07-02T08:31:54.268Z,18.521423
2023-07-02T08:35:19.467Z,18.440857
2023-07-02T08:38:44.617Z,18.632202
2023-07-02T08:42:09.782Z,18.753052
2023-07-02T08:45:34.952Z,18.722839
2023-07-02T08:49:00.133Z,18.783264
2023-07-02T08:52:25.350Z,18.672485
2023-07-02T08:55:50.482Z,18.571777
2023-07-02T08:59:15.676Z,18.722839
2023-07-02T09:02:40.980Z,18.551636
2023-07-02T09:06:06.129Z,18.471069
2023-07-02T09:09:31.384Z,18.521423
2023-07-02T09:12:56.793Z,18.763123
2023-07-02T09:16:21.972Z,19.035034
2023-07-02T09:19:47.164Z,19.035034
2023-07-02T09:23:12.339Z,19.186096
2023-07-02T09:26:37.637Z,19.407654
2023-07-02T09:30:02.696Z,19.558716
2023-07-02T09:33:27.932Z,19.810486
2023-07-02T09:36:53.058Z,19.578857
2023-07-02T09:40:18.266Z,19.3573
2023-07-02T09:43:43.539Z,19.407654
2023-07-02T09:47:08.599Z,19.629211
2023-07-02T09:50:33.776Z,19.86084
2023-07-02T09:53:58.956Z,19.99176
2023-07-02T09:57:24.171Z,19.880981
2023-07-02T10:00:49.715Z,19.538574
2023-07-02T10:04:14.583Z,19.075317
2023-07-02T10:07:39.726Z,18.98468
2023-07-02T10:11:04.899Z,18.944397
2023-07-02T10:14:30.053Z,18.98468
2023-07-02T10:17:55.315Z,18.994751
2023-07-02T10:21:20.404Z,19.306946
2023-07-02T10:24:45.627Z,19.810486
2023-07-02T10:28:10.781Z,19.911194
2023-07-02T10:31:35.969Z,19.659424
2023-07-02T10:35:01.229Z,19.458008
2023-07-02T10:38:26.344Z,19.498291
2023-07-02T10:41:51.501Z,19.659424
2023-07-02T10:45:16.715Z,19.780273
2023-07-02T10:48:43.815Z,20.021973
2023-07-02T10:52:07.068Z,20.183105
2023-07-02T10:55:32.255Z,20.173035
2023-07-02T10:58:57.418Z,20.162964
2023-07-02T11:02:22.646Z,20.132751
2023-07-02T11:05:47.940Z,20.011902
2023-07-02T11:09:12.947Z,20.052185
2023-07-02T11:12:38.145Z,20.032043
2023-07-02T11:16:03.333Z,19.880981
2023-07-02T11:19:28.523Z,20.132751
2023-07-02T11:22:53.700Z,20.36438
2023-07-02T11:26:18.889Z,20.162964
2023-07-02T11:29:44.027Z,20.032043
2023-07-02T11:33:09.186Z,19.981689
2023-07-02T11:36:34.387Z,20.11261
2023-07-02T11:39:59.613Z,20.36438
2023-07-02T11:43:24.812Z,20.515442
2023-07-02T11:46:50.006Z,20.434875
2023-07-02T11:50:26.024Z,20.283813
2023-07-02T11:53:40.295Z,20.032043
2023-07-02T11:57:05.461Z,19.880981
2023-07-02T12:00:30.645Z,19.86084
2023-07-02T12:03:55.828Z,19.880981
2023-07-02T12:07:20.968Z,19.961548
2023-07-02T12:10:46.151Z,20.032043
2023-07-02T12:14:11.285Z,19.99176
2023-07-02T12:17:36.507Z,19.911194
2023-07-02T12:21:01.646Z,19.709778
2023-07-02T12:24:26.924Z,19.498291
2023-07-02T12:27:51.982Z,19.407654
2023-07-02T12:31:17.212Z,19.558716
2023-07-02T12:34:42.412Z,19.659424
2023-07-02T12:38:07.543Z,19.679565
2023-07-02T12:41:32.711Z,19.73999
2023-07-02T12:44:57.879Z,19.709778
2023-07-02T12:48:23.049Z,19.498291
2023-07-02T12:51:48.251Z,19.387512
2023-07-02T12:55:13.410Z,19.629211
2023-07-02T12:58:38.574Z,20.082397
2023-07-02T13:02:03.789Z,20.314026
2023-07-02T13:05:28.889Z,20.293884
2023-07-02T13:08:54.081Z,20.203247
2023-07-02T13:12:19.287Z,20.052185
2023-07-02T13:15:44.405Z,19.941406
2023-07-02T13:19:09.557Z,19.911194
2023-07-02T13:22:34.722Z,19.941406
2023-07-02T13:25:59.930Z,19.941406
2023-07-02T13:29:25.079Z,19.86084
2023-07-02T13:32:50.235Z,19.709778
2023-07-02T13:36:15.414Z,19.629211
2023-07-02T13:39:40.567Z,19.709778
2023-07-02T13:43:05.772Z,19.810486
2023-07-02T13:46:30.954Z,19.770203
2023-07-02T13:49:56.069Z,19.961548
2023-07-02T13:53:21.244Z,20.213318
2023-07-02T13:56:48.030Z,20.394592
2023-07-02T14:00:11.590Z,20.324097
2023-07-02T14:03:36.832Z,20.173035
2023-07-02T14:07:01.905Z,20.132751
2023-07-02T14:10:27.055Z,20.11261
2023-07-02T14:13:52.244Z,20.082397
2023-07-02T14:17:17.450Z,20.062256
2023-07-02T14:20:42.588Z,20.021973
2023-07-02T14:24:07.756Z,19.981689
2023-07-02T14:27:32.925Z,19.99176
2023-07-02T14:30:58.161Z,20.032043
2023-07-02T14:34:23.382Z,19.951477
2023-07-02T14:37:48.492Z,19.86084
2023-07-02T14:41:13.662Z,19.941406
2023-07-02T14:44:38.863Z,19.961548
2023-07-02T14:48:04.045Z,19.961548
2023-07-02T14:51:29.245Z,19.951477
2023-07-02T14:54:54.403Z,19.941406
2023-07-02T14:58:19.602Z,19.941406
2023-07-02T15:01:44.823Z,19.86084
2023-07-02T15:05:10.033Z,19.840698
2023-07-02T15:08:35.158Z,19.911194
2023-07-02T15:46:28.430Z,19.840698
2023-07-02T15:49:53.566Z,19.709778
2023-07-02T15:53:18.757Z,19.679565
2023-07-02T15:56:43.916Z,19.729919
2023-07-02T16:00:09.097Z,19.709778
2023-07-02T16:03:34.552Z,19.689636
2023-07-02T16:06:59.423Z,19.629211
2023-07-02T16:10:24.603Z,19.588928
2023-07-02T16:13:49.839Z,19.558716
2023-07-02T16:17:14.992Z,19.558716
2023-07-02T16:20:40.229Z,19.679565
2023-07-02T16:24:05.410Z,19.73999
2023-07-02T16:27:30.570Z,19.629211
2023-07-02T16:30:55.733Z,19.578857
2023-07-02T16:34:20.886Z,19.538574
2023-07-02T16:37:46.101Z,19.458008
2023-07-02T16:41:11.275Z,19.478149
2023-07-02T16:44:36.642Z,19.478149
2023-07-02T16:48:01.645Z,19.478149
2023-07-02T16:51:26.804Z,19.458008
2023-07-02T16:54:52.029Z,19.498291
2023-07-02T16:58:17.183Z,19.508362
2023-07-02T17:01:42.431Z,19.458008
2023-07-02T17:05:07.522Z,19.367371
2023-07-02T17:08:32.686Z,19.306946
2023-07-02T17:11:57.926Z,19.3573
2023-07-02T17:15:23.057Z,19.387512
2023-07-02T17:18:48.249Z,19.407654
2023-07-02T17:22:13.428Z,19.427795
2023-07-02T17:25:38.736Z,19.407654
2023-07-02T17:29:04.041Z,19.3573
2023-07-02T17:32:29.297Z,19.306946
2023-07-02T17:35:54.504Z,19.246521
2023-07-02T17:39:19.839Z,19.216309
2023-07-02T17:42:45.441Z,19.256592
2023-07-02T17:46:10.683Z,19.246521
2023-07-02T17:49:35.890Z,19.206238
2023-07-02T17:53:01.110Z,19.125671
2023-07-02T17:56:26.365Z,19.075317
2023-07-02T17:59:52.060Z,19.004822
2023-07-02T18:03:17.413Z,19.065247
2023-07-02T18:06:44.562Z,19.055176
2023-07-02T18:10:09.993Z,18.994751
2023-07-02T18:13:35.260Z,18.944397
2023-07-02T18:17:00.541Z,18.954468
2023-07-02T18:20:25.827Z,18.883972
2023-07-02T18:23:51.039Z,18.873901
2023-07-02T18:27:16.304Z,18.883972
2023-07-02T18:30:41.562Z,18.873901
2023-07-02T18:34:06.775Z,18.813477
2023-07-02T18:37:32.058Z,18.813477
2023-07-02T18:40:57.293Z,18.753052
2023-07-02T18:44:22.541Z,18.763123
2023-07-02T18:47:47.769Z,18.722839
2023-07-02T18:51:12.981Z,18.692627
2023-07-02T18:54:38.274Z,18.652344
2023-07-02T18:58:03.461Z,18.622131
2023-07-02T19:01:28.767Z,18.581848
2023-07-02T19:04:54.124Z,18.622131
2023-07-02T19:08:19.340Z,18.541565
2023-07-02T19:11:44.584Z,18.360291
2023-07-02T19:15:09.824Z,18.199158
2023-07-02T19:18:35.074Z,18.048096
2023-07-02T19:22:00.370Z,17.947388
2023-07-02T19:25:25.630Z,17.85675
2023-07-02T19:28:50.937Z,17.735901
2023-07-02T19:32:16.151Z,17.715759
2023-07-02T19:35:41.383Z,17.615051
2023-07-02T19:39:06.648Z,17.584839
2023-07-02T19:42:31.912Z,17.524414
2023-07-02T19:45:57.225Z,17.494202
2023-07-02T19:49:22.419Z,17.463989
2023-07-02T19:52:47.679Z,17.413635
2023-07-02T19:56:12.913Z,17.373352
2023-07-02T19:59:38.150Z,17.312927
2023-07-02T20:03:03.580Z,17.252502
2023-07-02T20:06:28.812Z,17.192078
2023-07-02T20:09:53.871Z,17.141724
2023-07-02T20:13:19.113Z,17.151794
2023-07-02T20:16:44.374Z,17.141724
2023-07-02T20:20:09.638Z,17.071228
2023-07-02T20:23:34.837Z,17.010803
2023-07-02T20:27:00.089Z,16.859741
2023-07-02T20:30:25.315Z,16.759033
2023-07-02T20:33:50.562Z,16.779175
2023-07-02T20:37:15.844Z,16.809387
2023-07-02T20:40:41.079Z,16.819458
2023-07-02T20:44:06.366Z,16.789246
2023-07-02T20:47:31.629Z,16.728821
2023-07-02T20:50:56.888Z,16.658325
2023-07-02T20:54:22.155Z,16.5979
2023-07-02T20:57:47.344Z,16.456909
2023-07-02T21:01:12.622Z,16.376343
2023-07-02T21:04:37.859Z,16.325989
2023-07-02T21:08:03.058Z,16.295776
2023-07-02T21:11:33.334Z,16.225281
2023-07-02T21:14:53.570Z,16.235352
2023-07-02T21:18:18.783Z,16.265564
2023-07-02T21:21:43.997Z,16.235352
2023-07-02T21:25:09.246Z,16.195068
2023-07-02T21:28:34.536Z,16.195068
2023-07-02T21:31:59.811Z,16.225281
2023-07-02T21:35:25.019Z,16.195068
2023-07-02T21:38:50.279Z,16.195068
2023-07-02T21:42:15.531Z,16.225281
2023-07-02T21:45:40.784Z,16.235352
2023-07-02T21:49:06.018Z,16.295776
2023-07-02T21:52:31.299Z,16.275635
2023-07-02T21:55:56.513Z,16.225281
2023-07-02T21:59:26.408Z,16.144714
2023-07-02T22:02:47.035Z,16.074219
2023-07-02T22:06:12.232Z,16.054077
2023-07-02T22:09:37.597Z,16.044006
2023-07-02T22:13:02.691Z,16.013794
2023-07-02T22:16:27.936Z,15.96344
2023-07-02T22:19:53.193Z,15.903015
2023-07-02T22:23:18.397Z,15.84259
2023-07-02T22:26:43.630Z,15.762024
2023-07-02T22:30:08.876Z,15.71167
2023-07-02T22:33:34.134Z,15.681458
2023-07-02T22:36:59.387Z,15.681458
2023-07-02T22:40:24.633Z,15.691528
2023-07-02T22:43:49.855Z,15.691528
2023-07-02T22:47:15.132Z,15.721741
2023-07-02T22:50:40.372Z,15.721741
2023-07-02T22:54:05.666Z,15.741882
2023-07-02T22:57:30.846Z,15.741882
2023-07-02T23:00:56.105Z,15.71167
2023-07-02T23:04:21.473Z,15.641174
2023-07-02T23:07:46.658Z,15.540466
2023-07-02T23:11:11.924Z,15.439758
2023-07-02T23:14:37.128Z,15.409546
2023-07-02T23:18:02.420Z,15.409546
2023-07-02T23:21:27.626Z,15.349121
2023-07-02T23:24:52.888Z,15.308838
2023-07-02T23:28:18.150Z,15.20813
2023-07-02T23:31:43.393Z,15.107422
2023-07-02T23:35:08.635Z,15.026855
2023-07-02T23:38:33.875Z,15.006714
2023-07-02T23:41:59.102Z,14.946289
2023-07-02T23:45:24.397Z,14.885864
2023-07-02T23:48:49.591Z,14.825439
2023-07-02T23:52:14.818Z,14.83551
2023-07-02T23:55:40.051Z,14.825439
2023-07-02T23:59:05.298Z,14.805298
